createdAt,value
2018-10-17T00:02:26.075Z,12.90
2018-10-17T00:04:53.675Z,12.57
2018-10-17T00:07:21.465Z,13.90
2018-10-17T00:09:49.069Z,12.57
2018-10-17T00:12:16.645Z,14.90
2018-10-17T00:14:44.250Z,16.83
2018-10-17T00:17:11.902Z,13.80
2018-10-17T00:19:39.426Z,15.13
2018-10-17T00:22:07.564Z,14.23
2018-10-17T00:24:35.128Z,15.07
2018-10-17T00:27:02.805Z,15.73
2018-10-17T00:29:30.363Z,13.23
2018-10-17T00:31:58.060Z,15.40
2018-10-17T00:34:25.613Z,14.10
2018-10-17T00:36:53.303Z,13.77
2018-10-17T00:39:20.834Z,13.23
2018-10-17T00:41:48.453Z,14.27
2018-10-17T00:44:16.012Z,14.57
2018-10-17T00:46:43.590Z,14.23
2018-10-17T00:49:11.449Z,14.70
2018-10-17T00:51:38.985Z,14.83
2018-10-17T00:54:06.837Z,16.67
2018-10-17T00:56:34.493Z,15.87
2018-10-17T00:59:05.994Z,14.33
2018-10-17T01:01:33.585Z,13.80
2018-10-17T01:04:01.517Z,15.33
2018-10-17T01:06:29.769Z,14.83
2018-10-17T01:08:57.360Z,14.37
2018-10-17T01:11:24.972Z,13.97
2018-10-17T01:13:52.578Z,13.77
2018-10-17T01:16:20.190Z,16.20
2018-10-17T01:18:47.756Z,14.70
2018-10-17T01:21:15.391Z,13.97
2018-10-17T01:23:42.961Z,16.30
2018-10-17T01:26:10.616Z,14.40
2018-10-17T01:28:38.166Z,14.27
2018-10-17T01:31:06.081Z,15.33
2018-10-17T01:33:33.546Z,15.53
2018-10-17T01:36:01.117Z,14.57
2018-10-17T01:38:28.660Z,15.83
2018-10-17T01:40:56.274Z,15.73
2018-10-17T01:43:23.817Z,15.33
2018-10-17T01:45:51.713Z,15.47
2018-10-17T01:48:19.518Z,14.23
2018-10-17T01:50:47.089Z,14.07
2018-10-17T01:53:14.711Z,14.53
2018-10-17T01:55:42.275Z,15.83
2018-10-17T01:58:09.856Z,14.20
2018-10-17T02:00:37.468Z,13.40
2018-10-17T02:03:05.058Z,14.07
2018-10-17T02:05:32.718Z,14.33
2018-10-17T02:08:00.281Z,16.27
2018-10-17T02:10:27.993Z,14.00
2018-10-17T02:12:55.629Z,13.40
2018-10-17T02:15:23.153Z,16.87
2018-10-17T02:17:51.069Z,15.03
2018-10-17T02:20:18.930Z,15.53
2018-10-17T02:22:46.521Z,14.97
2018-10-17T02:25:14.238Z,14.00
2018-10-17T02:27:41.719Z,14.63
2018-10-17T02:30:09.421Z,14.27
2018-10-17T02:32:37.235Z,14.00
2018-10-17T02:35:11.228Z,14.33
2018-10-17T02:37:38.769Z,17.67
2018-10-17T02:40:06.412Z,15.13
2018-10-17T02:42:34.042Z,14.50
2018-10-17T02:45:01.725Z,14.90
2018-10-17T02:47:29.613Z,15.87
2018-10-17T02:49:57.156Z,13.93
2018-10-17T02:52:24.746Z,16.27
2018-10-17T02:54:52.545Z,15.67
2018-10-17T02:57:20.189Z,14.27
2018-10-17T02:59:47.741Z,14.50
2018-10-17T03:02:15.313Z,15.30
2018-10-17T03:04:42.816Z,16.60
2018-10-17T03:07:10.649Z,17.23
2018-10-17T03:09:38.295Z,14.50
2018-10-17T03:12:05.925Z,14.87
2018-10-17T03:14:33.467Z,14.03
2018-10-17T03:17:01.040Z,14.87
2018-10-17T03:19:28.598Z,16.43
2018-10-17T03:21:56.242Z,17.00
2018-10-17T03:24:23.786Z,15.87
2018-10-17T03:26:51.338Z,16.67
2018-10-17T03:29:18.972Z,16.87
2018-10-17T03:31:57.818Z,17.37
2018-10-17T03:34:25.376Z,14.83
2018-10-17T03:36:52.958Z,15.23
2018-10-17T03:39:20.523Z,17.30
2018-10-17T03:41:48.892Z,15.90
2018-10-17T03:44:16.441Z,16.90
2018-10-17T03:46:44.018Z,15.03
2018-10-17T03:49:11.598Z,14.73
2018-10-17T03:51:39.219Z,15.80
2018-10-17T03:54:07.306Z,21.63
2018-10-17T03:56:36.723Z,19.60
2018-10-17T03:59:04.743Z,17.23
2018-10-17T04:01:32.282Z,15.63
2018-10-17T04:03:59.838Z,15.47
2018-10-17T04:06:27.374Z,15.43
2018-10-17T04:08:54.909Z,14.57
2018-10-17T04:11:22.462Z,16.10
2018-10-17T04:13:50.057Z,16.47
2018-10-17T04:16:17.629Z,18.50
2018-10-17T04:18:45.210Z,19.73
2018-10-17T04:21:12.741Z,15.57
2018-10-17T04:23:40.301Z,16.53
2018-10-17T04:26:07.838Z,16.47
2018-10-17T04:28:35.582Z,14.70
2018-10-17T04:31:03.218Z,15.77
2018-10-17T04:33:30.769Z,16.03
2018-10-17T04:35:58.370Z,15.03
2018-10-17T04:38:26.138Z,18.23
2018-10-17T04:40:53.681Z,15.17
2018-10-17T04:43:21.242Z,15.83
2018-10-17T04:45:48.821Z,17.90
2018-10-17T04:48:16.660Z,15.43
2018-10-17T04:50:44.718Z,14.53
2018-10-17T04:53:12.652Z,14.53
2018-10-17T04:55:40.131Z,14.63
2018-10-17T04:58:08.066Z,14.30
2018-10-17T05:00:35.644Z,14.33
2018-10-17T05:03:03.762Z,14.70
2018-10-17T05:05:31.401Z,17.07
2018-10-17T05:07:59.812Z,15.73
2018-10-17T05:10:27.502Z,14.63
2018-10-17T05:12:55.051Z,19.50
2018-10-17T05:15:22.810Z,16.20
2018-10-17T05:17:50.317Z,17.53
2018-10-17T05:20:19.462Z,16.43
2018-10-17T05:22:47.945Z,15.80
2018-10-17T05:25:15.594Z,18.50
2018-10-17T05:27:43.354Z,19.03
2018-10-17T05:30:10.905Z,15.43
2018-10-17T05:32:38.456Z,24.33
2018-10-17T05:35:06.297Z,20.00
2018-10-17T05:37:33.866Z,26.90
2018-10-17T05:40:01.421Z,19.53
2018-10-17T05:42:28.959Z,17.17
2018-10-17T05:44:56.765Z,17.97
2018-10-17T05:47:24.374Z,22.67
2018-10-17T05:49:51.927Z,21.00
2018-10-17T05:52:19.487Z,17.57
2018-10-17T05:54:47.064Z,14.80
2018-10-17T05:57:14.613Z,20.17
2018-10-17T05:59:42.337Z,15.57
2018-10-17T06:02:15.921Z,16.80
2018-10-17T06:04:43.331Z,14.70
2018-10-17T06:07:10.967Z,18.87
2018-10-17T06:09:38.509Z,18.20
2018-10-17T06:12:06.065Z,17.17
2018-10-17T06:14:33.617Z,17.77
2018-10-17T06:17:01.307Z,18.87
2018-10-17T06:19:28.714Z,18.93
2018-10-17T06:21:56.377Z,19.60
2018-10-17T06:24:24.379Z,20.47
2018-10-17T06:26:52.536Z,17.63
2018-10-17T06:29:20.131Z,15.73
2018-10-17T06:31:47.921Z,23.97
2018-10-17T06:34:15.661Z,21.07
2018-10-17T06:36:43.161Z,45.40
2018-10-17T06:39:11.556Z,23.30
2018-10-17T06:41:39.141Z,18.00
2018-10-17T06:44:07.118Z,18.50
2018-10-17T06:46:34.628Z,17.83
2018-10-17T06:49:02.251Z,16.23
2018-10-17T06:51:29.799Z,18.80
2018-10-17T06:53:57.455Z,18.33
2018-10-17T06:56:25.113Z,18.57
2018-10-17T06:58:52.851Z,16.40
2018-10-17T07:01:20.382Z,60.00
2018-10-17T07:03:47.986Z,80.60
2018-10-17T07:06:15.586Z,19.37
2018-10-17T07:08:43.641Z,18.40
2018-10-17T07:11:11.234Z,21.57
2018-10-17T07:13:38.797Z,16.30
2018-10-17T07:16:06.376Z,18.10
2018-10-17T07:18:33.926Z,20.57
2018-10-17T07:21:01.491Z,19.17
2018-10-17T07:23:29.081Z,18.10
2018-10-17T07:25:56.944Z,19.07
2018-10-17T07:28:24.498Z,19.97
2018-10-17T07:30:52.304Z,20.37
2018-10-17T07:33:19.809Z,19.20
2018-10-17T07:35:47.492Z,17.97
2018-10-17T07:38:15.113Z,18.10
2018-10-17T07:40:54.479Z,17.97
2018-10-17T07:43:22.017Z,20.63
2018-10-17T07:45:49.777Z,18.90
2018-10-17T07:48:17.394Z,19.37
2018-10-17T07:50:45.072Z,201.27
2018-10-17T07:53:12.846Z,38.00
2018-10-17T07:55:40.466Z,20.77
2018-10-17T07:58:08.030Z,17.60
2018-10-17T08:00:35.593Z,19.43
2018-10-17T08:03:03.160Z,18.00
2018-10-17T08:05:30.852Z,21.37
2018-10-17T08:07:58.493Z,17.43
2018-10-17T08:10:26.070Z,21.07
2018-10-17T08:12:53.817Z,22.20
2018-10-17T08:15:21.407Z,22.27
2018-10-17T08:17:48.946Z,34.13
2018-10-17T08:20:16.501Z,21.17
2018-10-17T08:22:46.536Z,21.37
2018-10-17T08:25:14.286Z,137.10
2018-10-17T08:27:42.362Z,30.13
2018-10-17T08:30:10.560Z,20.53
2018-10-17T08:32:38.668Z,24.10
2018-10-17T08:35:06.341Z,19.97
2018-10-17T08:37:34.201Z,20.43
2018-10-17T08:40:01.553Z,17.53
2018-10-17T08:42:29.094Z,15.57
2018-10-17T08:44:56.958Z,15.43
2018-10-17T08:47:24.651Z,16.43
2018-10-17T08:49:52.214Z,19.40
2018-10-17T08:52:19.900Z,25.10
2018-10-17T08:54:47.491Z,77.00
2018-10-17T08:57:15.070Z,21.77
2018-10-17T08:59:42.866Z,21.67
2018-10-17T09:02:10.508Z,20.70
2018-10-17T09:04:37.992Z,21.00
2018-10-17T09:07:05.880Z,17.77
2018-10-17T09:09:33.412Z,20.50
2018-10-17T09:12:01.078Z,18.20
2018-10-17T09:14:28.633Z,18.63
2018-10-17T09:16:56.230Z,23.53
2018-10-17T09:19:24.056Z,24.90
2018-10-17T09:21:51.805Z,22.27
2018-10-17T09:24:22.193Z,19.83
2018-10-17T09:26:49.812Z,21.67
2018-10-17T09:29:17.498Z,16.77
2018-10-17T09:31:45.073Z,16.30
2018-10-17T09:34:12.703Z,17.40
2018-10-17T09:36:40.239Z,19.87
2018-10-17T09:39:09.394Z,21.47
2018-10-17T09:41:37.057Z,16.37
2018-10-17T09:44:04.637Z,17.13
2018-10-17T09:46:32.220Z,19.87
2018-10-17T09:48:59.841Z,104.23
2018-10-17T09:51:27.414Z,16.50
2018-10-17T09:56:33.116Z,16.83
2018-10-17T09:59:00.721Z,15.20
2018-10-17T10:01:33.291Z,15.77
2018-10-17T10:04:00.865Z,16.00
2018-10-17T10:06:28.638Z,13.23
2018-10-17T10:08:56.201Z,14.30
2018-10-17T10:11:23.802Z,15.47
2018-10-17T10:13:51.814Z,16.87
2018-10-17T10:16:19.504Z,13.37
2018-10-17T10:18:47.029Z,15.10
2018-10-17T10:21:14.606Z,14.63
2018-10-17T10:23:42.193Z,17.03
2018-10-17T10:26:09.794Z,24.37
2018-10-17T10:28:37.409Z,15.57
2018-10-17T10:31:04.946Z,14.23
2018-10-17T10:33:32.553Z,17.10
2018-10-17T10:36:00.151Z,12.73
2018-10-17T10:38:27.761Z,11.67
2018-10-17T10:40:55.322Z,17.77
2018-10-17T10:43:22.954Z,11.50
2018-10-17T10:45:54.325Z,12.90
2018-10-17T10:48:21.923Z,12.20
2018-10-17T10:50:49.466Z,13.17
2018-10-17T10:53:17.261Z,11.10
2018-10-17T10:55:44.813Z,11.13
2018-10-17T10:58:12.454Z,11.90
2018-10-17T11:00:39.947Z,12.83
2018-10-17T11:03:07.544Z,15.00
2018-10-17T11:05:35.311Z,12.73
2018-10-17T11:08:02.730Z,12.70
2018-10-17T11:10:30.429Z,13.20
2018-10-17T11:12:58.046Z,13.33
2018-10-17T11:15:25.582Z,12.43
2018-10-17T11:17:53.608Z,11.93
2018-10-17T11:20:21.153Z,14.33
2018-10-17T11:22:48.826Z,18.63
2018-10-17T11:25:16.401Z,15.70
2018-10-17T11:27:44.217Z,15.87
2018-10-17T11:30:11.857Z,11.90
2018-10-17T11:32:39.622Z,11.87
2018-10-17T11:35:08.351Z,12.30
2018-10-17T11:37:36.037Z,11.60
2018-10-17T11:40:03.609Z,11.47
2018-10-17T11:42:31.209Z,11.33
2018-10-17T11:44:59.296Z,10.07
2018-10-17T11:47:26.813Z,10.97
2018-10-17T11:49:54.425Z,12.67
2018-10-17T11:52:22.409Z,10.43
2018-10-17T11:54:50.481Z,12.53
2018-10-17T11:57:18.982Z,10.13
2018-10-17T11:59:48.214Z,44.70
2018-10-17T12:02:15.694Z,12.23
2018-10-17T12:04:43.477Z,10.63
2018-10-17T12:07:10.869Z,9.30
2018-10-17T12:09:38.429Z,12.13
2018-10-17T12:12:06.561Z,10.63
2018-10-17T12:14:35.014Z,10.57
2018-10-17T12:17:02.817Z,14.43
2018-10-17T12:19:30.425Z,10.97
2018-10-17T12:21:57.972Z,10.93
2018-10-17T12:24:25.633Z,11.10
2018-10-17T12:26:53.224Z,12.47
2018-10-17T12:29:20.862Z,10.73
2018-10-17T12:31:48.466Z,15.93
2018-10-17T12:34:16.069Z,12.40
2018-10-17T12:36:43.621Z,11.87
2018-10-17T12:39:13.271Z,13.87
2018-10-17T12:41:41.168Z,12.13
2018-10-17T12:44:08.722Z,11.23
2018-10-17T12:46:36.385Z,11.87
2018-10-17T12:49:04.123Z,13.40
2018-10-17T12:51:31.649Z,12.00
2018-10-17T12:53:59.262Z,13.63
2018-10-17T12:56:27.305Z,13.37
2018-10-17T12:58:54.912Z,11.73
2018-10-17T13:01:23.462Z,12.60
2018-10-17T13:03:51.249Z,12.10
2018-10-17T13:06:20.656Z,13.33
2018-10-17T13:08:48.200Z,18.00
2018-10-17T13:11:15.841Z,14.50
2018-10-17T13:13:43.433Z,12.00
2018-10-17T13:16:12.370Z,17.30
2018-10-17T13:18:40.146Z,14.20
2018-10-17T13:21:07.741Z,15.53
2018-10-17T13:23:35.815Z,15.53
2018-10-17T13:26:03.462Z,13.77
2018-10-17T13:28:31.069Z,16.00
2018-10-17T13:30:58.840Z,17.33
2018-10-17T13:33:26.424Z,14.50
2018-10-17T13:35:54.030Z,16.87
2018-10-17T13:38:21.889Z,19.90
2018-10-17T13:40:51.787Z,15.67
2018-10-17T13:43:20.665Z,13.30
2018-10-17T13:45:48.353Z,16.43
2018-10-17T13:48:15.897Z,18.77
2018-10-17T13:50:43.530Z,15.20
2018-10-17T13:53:11.333Z,17.40
2018-10-17T13:55:38.905Z,12.77
2018-10-17T13:58:06.775Z,11.70
2018-10-17T14:00:34.493Z,15.40
2018-10-17T14:03:02.170Z,12.27
2018-10-17T14:05:29.769Z,14.93
2018-10-17T14:07:57.499Z,11.53
2018-10-17T14:10:25.092Z,13.07
2018-10-17T14:12:52.713Z,10.17
2018-10-17T14:15:20.465Z,14.40
2018-10-17T14:17:48.025Z,10.23
2018-10-17T14:20:15.645Z,14.73
2018-10-17T14:22:43.248Z,10.40
2018-10-17T14:25:11.069Z,11.12
2018-10-17T14:27:38.656Z,12.60
2018-10-17T14:30:06.554Z,10.65
2018-10-17T14:32:34.262Z,8.93
2018-10-17T14:35:02.002Z,9.98
2018-10-17T14:37:29.811Z,13.20
2018-10-17T14:39:57.614Z,12.63
2018-10-17T14:42:25.189Z,11.40
2018-10-17T14:44:52.823Z,9.83
2018-10-17T14:47:20.381Z,14.80
2018-10-17T14:49:47.961Z,10.13
2018-10-17T14:52:15.501Z,18.02
2018-10-17T14:54:43.099Z,12.95
2018-10-17T14:57:10.702Z,12.68
2018-10-17T14:59:38.374Z,13.45
2018-10-17T15:02:06.060Z,14.58
2018-10-17T15:04:33.641Z,9.48
2018-10-17T15:07:01.258Z,9.33
2018-10-17T15:09:28.845Z,15.00
2018-10-17T15:11:56.596Z,14.23
2018-10-17T15:14:24.269Z,12.65
2018-10-17T15:16:51.850Z,14.15
2018-10-17T15:19:19.440Z,11.00
2018-10-17T15:21:47.057Z,9.98
2018-10-17T15:24:14.766Z,13.03
2018-10-17T15:26:45.273Z,9.63
2018-10-17T15:29:12.817Z,11.97
2018-10-17T15:31:40.486Z,14.38
2018-10-17T15:34:08.081Z,21.97
2018-10-17T15:36:35.690Z,46.18
2018-10-17T15:39:04.232Z,11.55
2018-10-17T15:41:31.809Z,12.95
2018-10-17T15:43:59.437Z,14.18
2018-10-17T15:46:27.141Z,13.83
2018-10-17T15:48:54.940Z,16.97
2018-10-17T15:51:23.538Z,17.35
2018-10-17T15:53:51.252Z,12.15
2018-10-17T15:56:18.791Z,11.00
2018-10-17T15:58:46.370Z,15.60
2018-10-17T16:01:13.990Z,19.20
2018-10-17T16:03:41.534Z,19.10
2018-10-17T16:06:09.453Z,18.00
2018-10-17T16:08:36.941Z,15.63
2018-10-17T16:11:05.573Z,14.80
2018-10-17T16:13:33.137Z,17.47
2018-10-17T16:16:00.709Z,22.17
2018-10-17T16:18:28.285Z,35.27
2018-10-17T16:20:55.857Z,26.83
2018-10-17T16:23:23.520Z,25.03
2018-10-17T16:25:51.085Z,27.70
2018-10-17T16:28:18.777Z,24.67
2018-10-17T16:30:46.923Z,26.03
2018-10-17T16:33:25.681Z,26.67
2018-10-17T16:36:01.314Z,25.57
2018-10-17T16:38:38.994Z,25.03
2018-10-17T16:41:17.303Z,21.87
2018-10-17T16:43:56.236Z,23.07
2018-10-17T16:46:32.947Z,27.67
2018-10-17T16:49:00.522Z,26.33
2018-10-17T16:51:36.313Z,27.43
2018-10-17T16:54:10.678Z,21.97
2018-10-17T16:56:44.630Z,19.00
2018-10-17T16:59:20.627Z,20.00
2018-10-17T17:01:54.846Z,19.40
2018-10-17T17:04:26.701Z,22.97
2018-10-17T17:07:06.506Z,21.47
2018-10-17T17:09:44.648Z,20.40
2018-10-17T17:12:12.393Z,18.77
2018-10-17T17:14:39.959Z,24.23
2018-10-17T17:17:07.478Z,20.20
2018-10-17T17:19:35.037Z,18.33
2018-10-17T17:22:02.725Z,16.13
2018-10-17T17:24:30.525Z,24.13
2018-10-17T17:26:58.122Z,19.90
2018-10-17T17:29:25.827Z,29.47
2018-10-17T17:31:53.425Z,25.47
2018-10-17T17:34:20.977Z,27.53
2018-10-17T17:36:48.714Z,27.37
2018-10-17T17:39:16.249Z,22.93
2018-10-17T17:41:43.843Z,27.03
2018-10-17T17:44:11.515Z,29.17
2018-10-17T17:46:39.137Z,26.20
2018-10-17T17:49:06.681Z,35.10
2018-10-17T17:51:34.296Z,43.97
2018-10-17T17:54:02.499Z,45.13
2018-10-17T17:56:30.083Z,31.10
2018-10-17T17:58:57.829Z,23.20
2018-10-17T18:01:26.464Z,23.73
2018-10-17T18:03:54.140Z,30.03
2018-10-17T18:06:21.730Z,23.97
2018-10-17T18:08:50.913Z,28.10
2018-10-17T18:11:20.057Z,27.57
2018-10-17T18:13:47.841Z,25.90
2018-10-17T18:16:15.493Z,28.17
2018-10-17T18:18:43.470Z,25.40
2018-10-17T18:21:11.190Z,23.17
2018-10-17T18:23:39.038Z,23.70
2018-10-17T18:26:06.794Z,27.13
2018-10-17T18:28:34.414Z,99.77
2018-10-17T18:31:02.110Z,110.33
2018-10-17T18:33:30.050Z,49.53
2018-10-17T18:35:58.799Z,34.93
2018-10-17T18:38:26.523Z,34.53
2018-10-17T18:40:54.094Z,33.97
2018-10-17T18:43:21.744Z,32.53
2018-10-17T18:45:50.675Z,35.63
2018-10-17T18:48:19.051Z,37.43
2018-10-17T18:50:47.322Z,33.13
2018-10-17T18:53:15.295Z,39.07
2018-10-17T18:55:42.950Z,36.93
2018-10-17T18:58:10.699Z,36.87
2018-10-17T19:00:38.750Z,36.10
2018-10-17T19:03:07.087Z,35.00
2018-10-17T19:05:34.726Z,40.33
2018-10-17T19:08:02.361Z,41.07
2018-10-17T19:10:30.210Z,43.43
2018-10-17T19:12:58.310Z,41.20
2018-10-17T19:15:25.885Z,44.23
2018-10-17T19:17:53.634Z,38.37
2018-10-17T19:20:21.950Z,42.77
2018-10-17T19:22:49.578Z,45.30
2018-10-17T19:25:19.093Z,42.73
2018-10-17T19:27:46.765Z,151.43
2018-10-17T19:30:14.424Z,58.20
2018-10-17T19:32:41.946Z,48.70
2018-10-17T19:35:09.498Z,55.83
2018-10-17T19:37:37.081Z,53.83
2018-10-17T19:40:05.231Z,57.90
2018-10-17T19:42:32.805Z,49.83
2018-10-17T19:45:00.410Z,53.07
2018-10-17T19:47:27.973Z,53.03
2018-10-17T19:49:55.593Z,56.13
2018-10-17T19:52:23.190Z,56.43
2018-10-17T19:54:50.803Z,56.87
2018-10-17T19:57:18.437Z,61.30
2018-10-17T19:59:45.986Z,55.07
2018-10-17T20:02:14.098Z,66.57
2018-10-17T20:04:41.678Z,58.40
2018-10-17T20:07:09.280Z,57.67
2018-10-17T20:09:39.628Z,132.37
2018-10-17T20:12:07.200Z,70.50
2018-10-17T20:14:34.819Z,59.77
2018-10-17T20:17:02.362Z,60.70
2018-10-17T20:19:30.045Z,63.20
2018-10-17T20:21:57.698Z,62.43
2018-10-17T20:24:25.445Z,66.87
2018-10-17T20:26:53.047Z,64.10
2018-10-17T20:29:20.662Z,66.30
2018-10-17T20:31:48.201Z,63.57
2018-10-17T20:34:22.625Z,74.50
2018-10-17T20:36:50.177Z,68.57
2018-10-17T20:39:18.018Z,64.17
2018-10-17T20:41:45.781Z,72.17
2018-10-17T20:44:13.470Z,65.00
2018-10-17T20:46:41.022Z,70.37
2018-10-17T20:49:09.345Z,64.77
2018-10-17T20:51:36.910Z,65.73
2018-10-17T20:54:05.185Z,67.20
2018-10-17T20:56:32.985Z,66.90
2018-10-17T20:59:00.582Z,68.57
2018-10-17T21:01:28.242Z,65.73
2018-10-17T21:03:55.825Z,64.93
2018-10-17T21:06:23.369Z,62.93
2018-10-17T21:08:50.961Z,67.47
2018-10-17T21:11:18.683Z,66.50
2018-10-17T21:13:46.286Z,67.63
2018-10-17T21:16:14.066Z,67.83
2018-10-17T21:18:41.716Z,66.00
2018-10-17T21:21:09.229Z,67.93
2018-10-17T21:23:36.794Z,65.47
2018-10-17T21:26:04.494Z,67.70
2018-10-17T21:28:32.031Z,65.37
2018-10-17T21:30:59.619Z,65.63
2018-10-17T21:33:27.229Z,67.70
2018-10-17T21:35:54.834Z,64.33
2018-10-17T21:38:22.540Z,64.57
2018-10-17T21:40:50.033Z,66.23
2018-10-17T21:43:19.126Z,73.07
2018-10-17T21:45:47.842Z,73.83
2018-10-17T21:48:16.853Z,66.27
2018-10-17T21:50:49.422Z,71.27
2018-10-17T21:53:18.386Z,74.90
2018-10-17T21:55:46.040Z,68.57
2018-10-17T21:58:13.657Z,69.30
2018-10-17T22:00:41.357Z,78.17
2018-10-17T22:03:08.913Z,67.07
2018-10-17T22:05:36.470Z,70.73
2018-10-17T22:08:04.285Z,67.70
2018-10-17T22:10:31.886Z,62.83
2018-10-17T22:12:59.438Z,70.60
2018-10-17T22:15:27.025Z,68.90
2018-10-17T22:17:54.802Z,70.47
2018-10-17T22:20:22.519Z,64.80
2018-10-17T22:22:50.124Z,67.97
2018-10-17T22:25:17.725Z,65.67
2018-10-17T22:27:45.309Z,67.73
2018-10-17T22:30:12.914Z,67.47
2018-10-17T22:32:40.458Z,70.03
2018-10-17T22:35:08.229Z,62.80
2018-10-17T22:37:35.873Z,68.23
2018-10-17T22:40:03.530Z,64.00
2018-10-17T22:42:31.093Z,64.50
2018-10-17T22:44:58.675Z,63.77
2018-10-17T22:47:26.225Z,61.37
2018-10-17T22:49:53.861Z,64.60
2018-10-17T22:52:21.393Z,69.77
2018-10-17T22:54:48.965Z,64.93
2018-10-17T22:57:16.542Z,66.17
2018-10-17T22:59:44.138Z,67.40
2018-10-17T23:02:11.716Z,76.13
2018-10-17T23:04:41.097Z,73.50
2018-10-17T23:07:08.674Z,68.97
2018-10-17T23:09:36.237Z,67.80
2018-10-17T23:12:04.293Z,67.73
2018-10-17T23:14:31.848Z,70.60
2018-10-17T23:16:59.437Z,74.37
2018-10-17T23:19:26.980Z,77.07
2018-10-17T23:21:54.545Z,74.13
2018-10-17T23:24:22.246Z,70.40
2018-10-17T23:26:49.861Z,75.17
2018-10-17T23:29:17.534Z,77.03
2018-10-17T23:31:45.481Z,75.37
2018-10-17T23:34:13.081Z,80.83
2018-10-17T23:36:40.795Z,79.43
2018-10-17T23:39:08.861Z,79.13
2018-10-17T23:41:36.508Z,85.10
2018-10-17T23:44:04.305Z,80.87
2018-10-17T23:46:31.890Z,82.50
2018-10-17T23:48:59.486Z,85.13
2018-10-17T23:51:27.087Z,82.70
2018-10-17T23:53:55.100Z,89.00
2018-10-17T23:56:22.678Z,81.50
2018-10-17T23:58:50.217Z,81.77
